Terminal Aerodrome Forecast
Issued by NWS

Home | Current Version | Previous Version | Text Only | Print | Product List | Glossary On
Versions: 1 2 3 4 5 6 7 8 9 10 11 12 13 14 15 16
000
FTUS42 KGSP 260901 AAA
TAFGMU
TAF AMD
KGMU 260901Z 2609/2706 18006KT P6SM OVC013
      TEMPO 2610/2614 OVC008
     FM261600 20005KT P6SM OVC025
     FM261800 22006KT P6SM OVC040 PROB30 2618/2624 4SM TSRA OVC030CB
     FM270000 15003KT P6SM VCTS OVC050CB=

USA.gov is the U.S. government's official web portal to all federal, state and local government web resources and services.